Time;durP1;ratioP1;P1;durP2;ratioP2;P2;SDS_P1;SDS_P2;PMS_P1;PMS_P2;Temp;Humidity;BMP_temperature;BMP_pressure;BME280_temperature;BME280_humidity;BME280_pressure;Samples;Min_cycle;Max_cycle;Signal;HPM_P1;HPM_P2
2024/02/08 00:00:19;;;;;;;;;;;;;;;;;;10436790;28;19925;-75
2024/02/08 00:05:22;;;;;;;;;;;;;;;;;;10424615;28;19927;-75
2024/02/08 00:10:27;;;;;;;;;;;;;;;;;;10430731;28;19925;-75
2024/02/08 00:15:30;;;;;;;;;;;;;;;;;;10434839;28;19931;-75
2024/02/08 00:20:33;;;;;;;;;;;;;;;;;;10437969;28;19921;-75
2024/02/08 00:25:37;;;;;;;;;;;;;;;;;;10441582;28;19924;-75
2024/02/08 00:30:41;;;;;;;;;;;;;;;;;;10440352;28;20642;-75
2024/02/08 00:35:44;;;;;;;;;;;;;;;;;;10426649;28;19928;-75
2024/02/08 00:40:51;;;;;;;;;;;;;;;;;;10444202;28;19927;-75
2024/02/08 00:45:54;;;;;;;;;;;;;;;;;;10445221;28;20625;-75
2024/02/08 00:50:57;;;;;;;;;;;;;;;;;;10424492;28;19920;-75
2024/02/08 00:56:02;;;;;;;;;;;;;;;;;;10436459;28;19924;-75
2024/02/08 01:01:07;;;;;;;;;;;;;;;;;;10429260;28;19920;-76
2024/02/08 01:06:10;;;;;;;;;;;;;;;;;;10420107;28;20015;-76
2024/02/08 01:11:15;;;;;;;;;;;;;;;;;;10424856;28;20018;-75
2024/02/08 01:16:18;;;;;;;;;;;;;;;;;;10422437;28;19926;-75
2024/02/08 01:21:22;;;;;;;;;;;;;;;;;;10432685;28;19925;-75
2024/02/08 01:26:27;;;;;;;;;;;;;;;;;;10424523;28;20393;-75
2024/02/08 01:31:32;;;;;;;;;;;;;;;;;;10423547;28;19925;-76
2024/02/08 01:36:36;;;;;;;;;;;;;;;;;;10419760;28;20600;-75
2024/02/08 01:41:42;;;;;;;;;;;;;;;;;;10422913;28;19927;-75
2024/02/08 01:46:48;;;;;;;;;;;;;;;;;;10420929;28;19936;-75
2024/02/08 01:51:59;;;;;;;;;;;;;;;;;;10414681;28;20055;-75
2024/02/08 01:57:04;;;;;;;;;;;;;;;;;;10423941;28;20329;-75
2024/02/08 02:02:09;;;;;;;;;;;;;;;;;;10428351;28;19935;-75
2024/02/08 02:07:12;;;;;;;;;;;;;;;;;;10421739;28;19921;-75
2024/02/08 02:12:17;;;;;;;;;;;;;;;;;;10416179;28;19920;-75
2024/02/08 02:17:26;;;;;;;;;;;;;;;;;;10421095;28;20383;-75
2024/02/08 02:22:33;;;;;;;;;;;;;;;;;;10417628;28;20358;-75
2024/02/08 02:27:39;;;;;;;;;;;;;;;;;;10429660;28;19931;-75
2024/02/08 02:32:44;;;;;;;;;;;;;;;;;;10430641;28;20015;-75
2024/02/08 02:37:51;;;;;;;;;;;;;;;;;;10442997;28;20003;-75
2024/02/08 02:42:55;;;;;;;;;;;;;;;;;;10417570;28;19921;-75
2024/02/08 02:48:01;;;;;;;;;;;;;;;;;;10441512;28;19924;-75
2024/02/08 02:53:06;;;;;;;;;;;;;;;;;;10451864;28;19928;-75
2024/02/08 02:58:09;;;;;;;;;;;;;;;;;;10434931;28;20018;-75
2024/02/08 03:03:13;;;;;;;;;;;;;;;;;;10441851;28;19925;-75
2024/02/08 03:08:19;;;;;;;;;;;;;;;;;;10446603;28;19968;-75
2024/02/08 03:13:22;;;;;;;;;;;;;;;;;;10439719;28;19979;-75
2024/02/08 03:18:26;;;;;;;;;;;;;;;;;;10443597;28;19944;-75
2024/02/08 03:23:30;;;;;;;;;;;;;;;;;;10451288;28;19920;-75
2024/02/08 03:28:35;;;;;;;;;;;;;;;;;;10433131;28;19920;-75
2024/02/08 03:33:38;;;;;;;;;;;;;;;;;;10445672;28;20534;-75
2024/02/08 03:38:44;;;;;;;;;;;;;;;;;;10446266;28;19939;-75
2024/02/08 03:43:47;;;;;;;;;;;;;;;;;;10438410;28;19921;-75
2024/02/08 03:48:53;;;;;;;;;;;;;;;;;;10429101;28;19920;-75
2024/02/08 03:54:00;;;;;;;;;;;;;;;;;;10441957;28;19920;-75
2024/02/08 03:59:07;;;;;;;;;;;;;;;;;;10438159;28;19938;-75
2024/02/08 04:04:15;;;;;;;;;;;;;;;;;;10442683;28;19925;-75
2024/02/08 04:09:33;;;;;;;;;;;;;;;;;;10441634;28;19921;-75
2024/02/08 04:57:27;;;;;;;;;;;;;;;;;;10428795;28;20210;-75
2024/02/08 05:02:31;;;;;;;;;;;;;;;;;;10428962;28;19921;-75
2024/02/08 05:07:34;;;;;;;;;;;;;;;;;;10430416;28;19933;-75
2024/02/08 05:12:38;;;;;;;;;;;;;;;;;;10406237;23;20036;-75
2024/02/08 05:17:42;;;;;;;;;;;;;;;;;;10400649;28;20011;-75
2024/02/08 05:22:45;;;;;;;;;;;;;;;;;;10399627;28;19933;-74
2024/02/08 05:27:50;;;;;;;;;;;;;;;;;;10380011;28;19921;-74
2024/02/08 05:32:59;;;;;;;;;;;;;;;;;;10399230;28;20017;-74
2024/02/08 05:38:02;;;;;;;;;;;;;;;;;;10400540;28;19940;-74
2024/02/08 05:43:07;;;;;;;;;;;;;;;;;;10401974;28;20040;-72
2024/02/08 05:48:10;;;;;;;;;;;;;;;;;;10404077;28;19924;-74
2024/02/08 05:53:17;;;;;;;;;;;;;;;;;;10399983;28;20434;-74
2024/02/08 05:58:22;;;;;;;;;;;;;;;;;;10396459;28;20019;-74
2024/02/08 06:03:33;;;;;;;;;;;;;;;;;;10399531;28;19927;-74
2024/02/08 06:08:40;;;;;;;;;;;;;;;;;;10395470;28;19929;-74
2024/02/08 06:13:50;;;;;;;;;;;;;;;;;;10404388;28;19921;-74
2024/02/08 06:18:57;;;;;;;;;;;;;;;;;;10389565;28;20016;-72
2024/02/08 06:24:29;;;;;;;;;;;;;;;;;;10402006;28;19921;-72
2024/02/08 06:29:27;;;;;;;;;;;;;;;;;;10398838;28;20388;-74
2024/02/08 06:34:45;;;;;;;;;;;;;;;;;;10400211;28;19928;-72
2024/02/08 06:39:55;;;;;;;;;;;;;;;;;;10404068;28;19964;-72
2024/02/08 07:43:54;;;;;;;;;;;;;;;;;;10409024;28;19940;-74
2024/02/08 07:49:04;;;;;;;;;;;;;;;;;;10405979;28;19921;-75
2024/02/08 07:54:10;;;;;;;;;;;;;;;;;;10403513;28;19943;-75
2024/02/08 07:59:16;;;;;;;;;;;;;;;;;;10402209;28;19944;-74
2024/02/08 08:09:38;;;;;;;;;;;;;;;;;;10404149;28;19935;-74
2024/02/08 08:15:13;;;;;;;;;;;;;;;;;;10405276;28;20306;-74
2024/02/08 08:20:50;;;;;;;;;;;;;;;;;;10404185;28;20019;-74
2024/02/08 08:31:34;;;;;;;;;;;;;;;;;;10400123;28;19929;-74
2024/02/08 08:36:41;;;;;;;;;;;;;;;;;;10409186;28;19924;-74
2024/02/08 08:41:47;;;;;;;;;;;;;;;;;;10401589;28;23843;-74
2024/02/08 08:46:52;;;;;;;;;;;;;;;;;;10413224;28;20559;-74
2024/02/08 08:52:04;;;;;;;;;;;;;;;;;;10409381;28;20297;-74
2024/02/08 08:57:12;;;;;;;;;;;;;;;;;;10405725;28;19928;-74
2024/02/08 09:02:15;;;;;;;;;;;;;;;;;;10403835;28;19960;-75
2024/02/08 09:07:20;;;;;;;;;;;;;;;;;;10406224;28;19931;-74
2024/02/08 09:12:29;;;;;;;;;;;;;;;;;;10404046;28;20016;-75
2024/02/08 09:17:51;;;;;;;;;;;;;;;;;;10406415;28;19924;-74
2024/02/08 09:22:57;;;;;;;;;;;;;;;;;;10404904;28;19928;-75
2024/02/08 09:28:23;;;;;;;;;;;;;;;;;;10402687;28;20295;-74
2024/02/08 09:33:31;;;;;;;;;;;;;;;;;;10400564;28;20305;-74
2024/02/08 09:38:43;;;;;;;;;;;;;;;;;;10400603;28;19928;-74
2024/02/08 09:43:48;;;;;;;;;;;;;;;;;;10400398;28;19971;-74
2024/02/08 09:48:51;;;;;;;;;;;;;;;;;;10404287;28;19994;-75
2024/02/08 09:54:14;;;;;;;;;;;;;;;;;;10404346;28;19936;-74
2024/02/08 09:59:40;;;;;;;;;;;;;;;;;;10401823;28;20011;-75
2024/02/08 10:04:49;;;;;;;;;;;;;;;;;;10397405;28;20310;-74
2024/02/08 10:10:03;;;;;;;;;;;;;;;;;;10400116;28;19940;-74
2024/02/08 10:15:14;;;;;;;;;;;;;;;;;;10402754;28;19921;-74
2024/02/08 10:20:36;;;;;;;;;;;;;;;;;;10399795;28;19970;-74
2024/02/08 10:31:05;;;;;;;;;;;;;;;;;;10403894;28;20348;-74
2024/02/08 10:36:15;;;;;;;;;;;;;;;;;;10401788;28;19920;-75
2024/02/08 10:41:19;;;;;;;;;;;;;;;;;;10397630;28;19925;-74
2024/02/08 10:46:23;;;;;;;;;;;;;;;;;;10387525;28;19928;-74
2024/02/08 10:51:27;;;;;;;;;;;;;;;;;;10412260;28;20600;-75
2024/02/08 10:56:40;;;;;;;;;;;;;;;;;;10405238;28;20028;-74
2024/02/08 11:02:02;;;;;;;;;;;;;;;;;;10405692;28;20323;-74
2024/02/08 11:07:17;;;;;;;;;;;;;;;;;;10408563;28;19964;-74
2024/02/08 11:12:29;;;;;;;;;;;;;;;;;;10447254;23;19925;-74
2024/02/08 11:17:35;;;;;;;;;;;;;;;;;;10439373;28;20283;-74
2024/02/08 11:22:42;;;;;;;;;;;;;;;;;;10442921;28;19920;-75
2024/02/08 11:28:09;;;;;;;;;;;;;;;;;;10422988;28;20341;-74
2024/02/08 11:33:13;;;;;;;;;;;;;;;;;;10441909;28;20388;-74
2024/02/08 11:38:16;;;;;;;;;;;;;;;;;;10442440;28;20337;-74
2024/02/08 11:43:23;;;;;;;;;;;;;;;;;;10440889;28;19952;-74
2024/02/08 11:48:27;;;;;;;;;;;;;;;;;;10422525;28;19937;-74
2024/02/08 11:53:34;;;;;;;;;;;;;;;;;;10442951;28;19927;-74
2024/02/08 11:58:42;;;;;;;;;;;;;;;;;;10443649;28;19935;-74
2024/02/08 12:03:45;;;;;;;;;;;;;;;;;;10439643;28;19928;-74
2024/02/08 12:08:55;;;;;;;;;;;;;;;;;;10441225;28;19932;-75
2024/02/08 12:14:02;;;;;;;;;;;;;;;;;;10438801;28;19927;-74
2024/02/08 12:19:06;;;;;;;;;;;;;;;;;;10440622;28;19925;-74
2024/02/08 12:24:15;;;;;;;;;;;;;;;;;;10435811;28;19928;-75
2024/02/08 12:29:20;;;;;;;;;;;;;;;;;;10441997;28;20002;-74
2024/02/08 12:34:31;;;;;;;;;;;;;;;;;;10440885;28;20388;-74
2024/02/08 12:39:35;;;;;;;;;;;;;;;;;;10438423;28;19928;-75
2024/02/08 12:44:40;;;;;;;;;;;;;;;;;;10439741;28;19920;-75
2024/02/08 12:49:44;;;;;;;;;;;;;;;;;;10443300;28;19930;-74
2024/02/08 12:54:53;;;;;;;;;;;;;;;;;;10422214;28;20007;-75
2024/02/08 13:00:02;;;;;;;;;;;;;;;;;;10442532;28;20302;-75
2024/02/08 13:05:05;;;;;;;;;;;;;;;;;;10436855;28;19921;-74
2024/02/08 13:10:14;;;;;;;;;;;;;;;;;;10442385;28;20053;-75
2024/02/08 13:15:21;;;;;;;;;;;;;;;;;;10442025;28;19928;-74
2024/02/08 13:20:25;;;;;;;;;;;;;;;;;;10431587;28;19925;-74
2024/02/08 13:25:28;;;;;;;;;;;;;;;;;;10443341;28;19940;-75
2024/02/08 13:30:36;;;;;;;;;;;;;;;;;;10420360;28;20646;-74
2024/02/08 13:35:41;;;;;;;;;;;;;;;;;;10445025;28;19921;-75
2024/02/08 13:40:45;;;;;;;;;;;;;;;;;;10437819;28;19967;-75
2024/02/08 13:45:52;;;;;;;;;;;;;;;;;;10439256;28;20389;-75
2024/02/08 13:50:55;;;;;;;;;;;;;;;;;;10436403;28;20015;-74
2024/02/08 13:55:59;;;;;;;;;;;;;;;;;;10433195;28;19944;-74
2024/02/08 14:01:03;;;;;;;;;;;;;;;;;;10445856;28;19921;-74
2024/02/08 14:06:09;;;;;;;;;;;;;;;;;;10437011;28;19921;-75
2024/02/08 14:11:16;;;;;;;;;;;;;;;;;;10437004;28;19974;-74
2024/02/08 14:16:21;;;;;;;;;;;;;;;;;;10436236;28;20051;-74
2024/02/08 14:21:27;;;;;;;;;;;;;;;;;;10435910;28;19921;-75
2024/02/08 14:26:40;;;;;;;;;;;;;;;;;;10436737;28;19921;-75
2024/02/08 14:31:45;;;;;;;;;;;;;;;;;;10439658;28;19928;-75
2024/02/08 14:36:48;;;;;;;;;;;;;;;;;;10443000;28;20795;-75
2024/02/08 14:41:52;;;;;;;;;;;;;;;;;;10433622;28;19920;-75
2024/02/08 14:46:56;;;;;;;;;;;;;;;;;;10438439;28;19925;-74
2024/02/08 14:52:01;;;;;;;;;;;;;;;;;;10437985;28;19931;-74
2024/02/08 14:57:04;;;;;;;;;;;;;;;;;;10439674;28;19924;-75
2024/02/08 15:02:18;;;;;;;;;;;;;;;;;;10435892;28;19927;-75
2024/02/08 15:07:47;;;;;;;;;;;;;;;;;;10437519;28;19963;-75
2024/02/08 15:12:56;;;;;;;;;;;;;;;;;;10437984;28;20294;-75
2024/02/08 15:18:11;;;;;;;;;;;;;;;;;;10437960;28;19924;-75
2024/02/08 15:28:35;;;;;;;;;;;;;;;;;;10437764;28;19927;-75
2024/02/08 15:34:07;;;;;;;;;;;;;;;;;;10442872;28;19920;-75
2024/02/08 15:44:34;;;;;;;;;;;;;;;;;;10449758;28;19921;-75
2024/02/08 15:49:42;;;;;;;;;;;;;;;;;;10434199;28;19932;-75
2024/02/08 15:54:50;;;;;;;;;;;;;;;;;;10451835;28;19921;-75
2024/02/08 15:59:57;;;;;;;;;;;;;;;;;;10450666;28;20533;-75
2024/02/08 16:05:13;;;;;;;;;;;;;;;;;;10448710;28;19929;-75
2024/02/08 16:10:24;;;;;;;;;;;;;;;;;;10438715;28;19955;-76
2024/02/08 16:17:57;;;;;;;;;;;;;;;;;;10456241;27;19920;-74
2024/02/08 16:23:06;;;;;;;;;;;;;;;;;;10420607;28;20289;-74
2024/02/08 16:28:17;;;;;;;;;;;;;;;;;;10469233;28;19925;-74
2024/02/08 16:33:32;;;;;;;;;;;;;;;;;;10444443;28;20473;-74
2024/02/08 16:38:37;;;;;;;;;;;;;;;;;;10463179;28;19924;-74
2024/02/08 16:43:43;;;;;;;;;;;;;;;;;;10455647;28;19933;-74
2024/02/08 16:48:48;;;;;;;;;;;;;;;;;;10467317;28;20019;-74
2024/02/08 16:54:01;;;;;;;;;;;;;;;;;;10453173;28;19925;-74
2024/02/08 16:59:09;;;;;;;;;;;;;;;;;;10462527;28;19924;-74
2024/02/08 17:04:29;;;;;;;;;;;;;;;;;;10465788;28;19967;-75
2024/02/08 17:15:20;;;;;;;;;;;;;;;;;;10347723;28;19976;-76
2024/02/08 17:20:37;;;;;;;;;;;;;;;;;;10381025;28;20039;-76
2024/02/08 17:25:50;;;;;;;;;;;;;;;;;;10385414;28;19926;-76
2024/02/08 17:31:04;;;;;;;;;;;;;;;;;;10369945;28;20012;-76
2024/02/08 17:36:14;;;;;;;;;;;;;;;;;;10367512;28;19996;-76
2024/02/08 17:41:18;;;;;;;;;;;;;;;;;;10361834;28;19933;-76
2024/02/08 17:46:22;;;;;;;;;;;;;;;;;;10366630;28;20327;-76
2024/02/08 17:51:37;;;;;;;;;;;;;;;;;;10365346;28;19933;-76
2024/02/08 17:56:41;;;;;;;;;;;;;;;;;;10365253;28;20033;-76
2024/02/08 18:01:55;;;;;;;;;;;;;;;;;;10366211;28;20438;-76
2024/02/08 18:07:03;;;;;;;;;;;;;;;;;;10364642;28;19980;-76
2024/02/08 18:12:13;;;;;;;;;;;;;;;;;;10365127;28;19925;-76
2024/02/08 18:17:18;;;;;;;;;;;;;;;;;;10367131;28;20520;-76
2024/02/08 18:22:29;;;;;;;;;;;;;;;;;;10366354;28;20152;-76
2024/02/08 18:27:33;;;;;;;;;;;;;;;;;;10364883;28;20338;-76
2024/02/08 18:32:38;;;;;;;;;;;;;;;;;;10341250;28;20532;-76
2024/02/08 18:37:46;;;;;;;;;;;;;;;;;;10360402;28;19980;-76
2024/02/08 18:42:54;;;;;;;;;;;;;;;;;;10341454;28;19930;-76
2024/02/08 18:48:00;;;;;;;;;;;;;;;;;;10361078;28;19933;-76
2024/02/08 18:53:05;;;;;;;;;;;;;;;;;;10361252;28;19932;-76
2024/02/08 18:58:09;;;;;;;;;;;;;;;;;;10359020;28;19926;-76
2024/02/08 19:03:15;;;;;;;;;;;;;;;;;;10361080;28;19929;-76
2024/02/08 19:08:19;;;;;;;;;;;;;;;;;;10356714;28;19980;-76
2024/02/08 19:13:26;;;;;;;;;;;;;;;;;;10360229;28;19925;-76
2024/02/08 19:18:43;;;;;;;;;;;;;;;;;;10363537;28;19980;-76
2024/02/08 19:23:49;;;;;;;;;;;;;;;;;;10359362;28;19929;-76
2024/02/08 19:28:52;;;;;;;;;;;;;;;;;;10357538;28;19933;-76
2024/02/08 19:33:59;;;;;;;;;;;;;;;;;;10354970;28;19929;-76
2024/02/08 19:39:33;;;;;;;;;;;;;;;;;;10358885;28;19926;-76
2024/02/08 19:44:42;;;;;;;;;;;;;;;;;;10359802;28;19973;-76
2024/02/08 19:49:46;;;;;;;;;;;;;;;;;;10358337;28;20713;-76
2024/02/08 19:54:56;;;;;;;;;;;;;;;;;;10353556;28;19936;-76
2024/02/08 20:00:00;;;;;;;;;;;;;;;;;;10357704;28;20027;-77
2024/02/08 20:05:04;;;;;;;;;;;;;;;;;;10340424;28;19926;-76
2024/02/08 20:10:11;;;;;;;;;;;;;;;;;;10353930;28;20618;-76
2024/02/08 20:15:19;;;;;;;;;;;;;;;;;;10358612;28;20941;-76
2024/02/08 20:20:22;;;;;;;;;;;;;;;;;;10357580;28;20015;-76
2024/02/08 20:25:32;;;;;;;;;;;;;;;;;;10357199;28;19941;-76
2024/02/08 20:30:38;;;;;;;;;;;;;;;;;;10357288;28;19930;-76
2024/02/08 20:35:42;;;;;;;;;;;;;;;;;;10348712;28;20035;-76
2024/02/08 20:40:49;;;;;;;;;;;;;;;;;;10357671;28;19933;-76
2024/02/08 20:45:54;;;;;;;;;;;;;;;;;;10356093;28;20004;-76
2024/02/08 20:50:59;;;;;;;;;;;;;;;;;;10361087;28;20020;-76
2024/02/08 20:56:06;;;;;;;;;;;;;;;;;;10359690;28;19949;-74
2024/02/08 21:01:10;;;;;;;;;;;;;;;;;;10362410;28;19926;-74
2024/02/08 21:06:13;;;;;;;;;;;;;;;;;;10351563;28;19961;-74
2024/02/08 21:13:16;;;;;;;;;;;;;;;;;;10404839;27;19920;-74
2024/02/08 21:18:20;;;;;;;;;;;;;;;;;;10462051;28;19933;-74
2024/02/08 21:23:23;;;;;;;;;;;;;;;;;;10424812;28;19933;-74
2024/02/08 21:28:29;;;;;;;;;;;;;;;;;;10416011;28;20410;-74
2024/02/08 21:33:32;;;;;;;;;;;;;;;;;;10374868;28;20024;-74
2024/02/08 21:38:36;;;;;;;;;;;;;;;;;;10421373;28;19925;-74
2024/02/08 21:43:43;;;;;;;;;;;;;;;;;;10424919;28;20375;-74
2024/02/08 21:48:46;;;;;;;;;;;;;;;;;;10418222;28;20594;-74
2024/02/08 21:53:49;;;;;;;;;;;;;;;;;;10423903;28;19933;-74
2024/02/08 21:58:55;;;;;;;;;;;;;;;;;;10422138;28;19925;-74
2024/02/08 22:04:03;;;;;;;;;;;;;;;;;;10421995;28;19929;-74
2024/02/08 22:09:09;;;;;;;;;;;;;;;;;;10424416;28;19931;-74
2024/02/08 22:14:15;;;;;;;;;;;;;;;;;;10423348;28;20004;-74
2024/02/08 22:19:23;;;;;;;;;;;;;;;;;;10420793;28;20000;-74
2024/02/08 22:24:26;;;;;;;;;;;;;;;;;;10392897;28;19930;-74
2024/02/08 22:29:32;;;;;;;;;;;;;;;;;;10381804;28;19933;-74
2024/02/08 22:34:36;;;;;;;;;;;;;;;;;;10352741;28;19926;-73
2024/02/08 22:39:39;;;;;;;;;;;;;;;;;;10374903;28;20025;-74
2024/02/08 22:44:44;;;;;;;;;;;;;;;;;;10365913;28;19929;-74
2024/02/08 22:49:47;;;;;;;;;;;;;;;;;;10381391;28;20366;-74
2024/02/08 22:54:51;;;;;;;;;;;;;;;;;;10362314;28;19937;-74
2024/02/08 22:59:56;;;;;;;;;;;;;;;;;;10397407;28;19925;-74
2024/02/08 23:04:59;;;;;;;;;;;;;;;;;;10394812;28;20528;-74
2024/02/08 23:10:09;;;;;;;;;;;;;;;;;;10399752;28;19925;-74
2024/02/08 23:15:16;;;;;;;;;;;;;;;;;;10388958;28;19925;-74
2024/02/08 23:20:19;;;;;;;;;;;;;;;;;;10395099;28;20068;-74
2024/02/08 23:25:23;;;;;;;;;;;;;;;;;;10398479;28;19975;-74
2024/02/08 23:30:27;;;;;;;;;;;;;;;;;;10389230;28;19925;-74
2024/02/08 23:35:31;;;;;;;;;;;;;;;;;;10386326;28;19956;-74
2024/02/08 23:40:34;;;;;;;;;;;;;;;;;;10390285;28;19963;-74
2024/02/08 23:45:39;;;;;;;;;;;;;;;;;;10396488;28;19929;-74
2024/02/08 23:50:43;;;;;;;;;;;;;;;;;;10393649;28;20553;-74
2024/02/08 23:55:47;;;;;;;;;;;;;;;;;;10388326;28;19929;-74
